Logo AVAMET
Benvolgut visitant, si us plau, ingressa Recuperar contrasenya

Catral

Dades diàries. Acumulats / Últims 30 dies disponibles

Data Temperatura (°C) Humitat rel. (%) Pressió rel. (hPa) Vent (km/h) Precipitació
Mínima Mitjana Màxima Amplitud
tèrmica
Mínima Mitjana Màxima Mínima Mitjana Màxima Predom. Mitjana Ràfega
màxima
Total
(mm)
Índex-n
Mínima Mitjana Màxima Mínima Mitjana Màxima n
0 a 1
P0 max
mm 5'
Dades mensuals acumulades fins l'últim dia disponible
01/2020 2,7 5,2 8,5 10,2 13,2 16,4 20,9 18,2 20 61 82 1.015 1.030 1.036   3,6 66,0 4,8
Dades anuals acumulades fins l'últim dia disponible
2020 2,7 5,2 8,5 10,2 13,2 16,4 20,9 18,2 20 61 82 1.015 1.030 1.036   3,6 66,0 4,8
Últims 30 dies disponibles
19-01-2020 7,6     10,4     13,2 5,6 48 57 72 1.015 1.017 1.022 S 11,7 66,0 4,8
18-01-2020 8,5     11,7     15,7 7,2 40 57 68 1.022 1.030 1.034 SO 3,5 24,1 0,0
17-01-2020 5,4     12,5     20,9 15,5 28 49 68 1.030 1.031 1.034 OSO 4,7 27,4 0,0
16-01-2020 5,3     11,0     19,1 13,8 31 55 67 1.028 1.029 1.031 SO 2,9 16,1 0,0
15-01-2020 3,9     10,3     17,8 13,9 31 51 63 1.025 1.028 1.030 OSO 2,9 17,7 0,0
14-01-2020 2,9     9,1     16,7 13,8 20 52 66 1.023 1.024 1.026 SO 3,4 19,3 0,0
13-01-2020 2,8     8,8     15,6 12,8 43 61 75 1.025 1.028 1.031 OSO 3,4 19,3 0,0
12-01-2020 3,8     9,3     16,5 12,7 29 61 73 1.030 1.031 1.033 SSO 3,9 22,5 0,0
11-01-2020 7,1     12,1     17,0 9,9 32 53 71 1.029 1.031 1.033 SSE 3,4 20,9 0,0
10-01-2020 6,1     11,0     17,3 11,2 33 60 76 1.025 1.026 1.030 SSE 4,4 32,2 0,0
09-01-2020 8,2     11,3     16,6 8,4 44 65 76 1.027 1.029 1.031 SO 2,6 17,7 0,0
08-01-2020 3,4     9,0     15,4 12,0 49 67 74 1.029 1.031 1.032 SSO 3,0 16,1 0,0
07-01-2020 2,7     8,5     16,0 13,3 44 68 76 1.031 1.032 1.034 SO 2,6 12,9 0,0
06-01-2020 2,9     8,6     15,8 12,9 44 65 74 1.030 1.031 1.032 OSO 1,9 12,9 0,0
05-01-2020 4,6     9,5     16,6 12,0 42 64 76 1.028 1.031 1.033 SSO 2,9 16,1 0,0
04-01-2020 6,6     10,5     15,9 9,3 49 64 72 1.033 1.034 1.036 OSO 2,6 16,1 0,0
03-01-2020 3,9     9,5     17,2 13,3 44 69 81 1.030 1.032 1.034 SSO 3,5 16,1 0,0
02-01-2020 7,8     10,8     13,6 5,8 64 73 80 1.033 1.034 1.036 ONO 3,4 17,7 0,0
01-01-2020 4,8     9,6     15,5 10,7 63 75 82 1.032 1.033 1.035 SO 2,2 14,5 0,0
31-12-2019 5,2     9,9     15,7 10,5 60 74 80 1.033 1.034 1.036 O 2,4 12,9 0,0
30-12-2019 7,8     11,1     16,7 8,9 54 74 83 1.033 1.034 1.036 OSO 2,6 14,5 0,0
29-12-2019 5,8     10,7     16,7 10,9 59 78 88 1.032 1.033 1.035 SSO 2,2 14,5 0,2
28-12-2019 8,4     11,3     15,9 7,5 69 81 89 1.030 1.032 1.034 SSE 2,5 19,3 0,0
27-12-2019 7,7     12,3     18,3 10,6 48 65 77 1.029 1.031 1.032 SSO 2,2 11,3 0,0
26-12-2019 8,8     15,4     25,4 16,6 25 49 65 1.023 1.026 1.031 S 3,7 20,9 0,0
25-12-2019 8,2     15,3     20,3 12,1 40 55 68 1.024 1.025 1.027 O 2,1 11,3 0,0
24-12-2019 9,4     15,1     22,8 13,4 35 53 66 1.026 1.028 1.031 SSO 3,7 19,3 0,0
23-12-2019 11,1     16,1     22,6 11,5 27 48 65 1.024 1.027 1.030 OSO 4,2 27,4 0,0
22-12-2019 17,7     19,8     23,4 5,7 21 32 41 1.011 1.018 1.023 ONO 11,0 51,5 0,0
21-12-2019 13,0     17,4     22,0 9,0 34 66 78 1.006 1.008 1.010 SO 4,4 37,0 0,0
Últims 13 mesos disponibles
12/2019 5,2 9,6 17,7 13,8 13,1 18,8 25,4 20,2 32 59 81 1.007 1.021 1.034 SO 4,8 51,5 36,8
11/2019 6,0 11,2 18,9 15,2 14,3 19,8 26,8 20,8 32 46 79 1.002 1.013 1.021 O 6,9 64,4 12,8
09/2019 16,3 20,3 24,1 24,2 21,6 29,0 33,8 17,5 39 64 81 1.012 1.019 1.023 SE 5,4 56,3 202,8
08/2019 19,3 22,2 24,5 27,0 29,4 32,8 40,6 21,3 42 58 68 1.012 1.017 1.021 SE 5,6 38,6 31,6
07/2019 20,3 22,5 25,6 27,6 29,7 33,1 36,9 16,6 29 50 63 1.008 1.015 1.021 SE 6,6 41,8 0,0
06/2019 13,3 17,9 22,2 23,8 24,6 29,5 35,9 22,6 31 50 63 1.010 1.016 1.023 SE 6,4 43,5 0,4
05/2019 11,4 14,7 19,5 19,9 20,6 25,5 31,9 20,5 36 55 67 1.008 1.017 1.026 SE 6,3 43,5 1,0
04/2019 7,9 11,6 14,6 16,0 14,8 21,5 29,6 21,7 39 63 89 1.002 1.016 1.027 SE 6,0 57,9 111,4
03/2019 4,6 8,2 12,3 14,2 14,0 20,9 28,9 24,3 33 55 83 1.013 1.024 1.032 SE 5,1 49,9 21,0
02/2019 3,2 6,6 11,9 12,2 14,2 19,1 26,2 23,0 26 57 72 999 1.026 1.034 W 5,3 67,6 0,0
01/2019 0,8 6,0 13,6 11,2 13,1 17,5 22,6 21,8 32 49 75 1.006 1.017 1.030 W 4,9 56,3 1,6
12/2018 5,3 8,2 11,7 12,6 9,5 19,0 24,4 19,1 44 67 92 1.012 1.027 1.033 OSO 4,0 64,4 8,8
10/2018 7,6 14,9 19,5 19,3 13,5 24,5 29,0 21,4 36 68 79 1.001 1.016 1.027 SSO 4,7 45,1 47,2
Tots els anys disponibles
Temperatura (°C)
Humitat relativa (%)
Velocitat del vent i ràfega màxima (km/h)
Direcció del vent (°)
Pressió (hPa)
Precipitació (mm)
Nota sobre les dades: s'avisa a l'usuari de la provisionalitat i no oficialitat d'aquestes dades
Logo AVAMET blanc
Web allotjada a Sollutia
Llicència de Creative CommonsLa web d'AVAMET i els seus continguts estan subjectes a una llicència de
Reconeixement - No Comercial - Compartir igual
Últimes estacions: Xixona - Els Ameradors (Soci), Agres - El Tossal (Soci), Xàbia - Bevenguts (MeteoXàbia), Llíria (Aj. Soci/Inforatge), Orihuela - Lo Capitán, Cox & Guardamar del Segura - horta (Meteorihuela), l'Alcúdia - Carriona & el Real de Gandia (Inforatge), Benicàssim - les Vil·les (Soci),  l'Alfàs del Pi - l'Albir (Soci), - - -